sensor_id;sensor_type;location;lat;lon;timestamp;temperature;humidity
52415;DHT22;38340;52.964;6.086;2023-04-03T00:01:36;1.80;99.90
52415;DHT22;38340;52.964;6.086;2023-04-03T00:04:04;1.80;99.90
52415;DHT22;38340;52.964;6.086;2023-04-03T00:06:31;1.80;99.90
52415;DHT22;38340;52.964;6.086;2023-04-03T00:08:57;1.80;99.90
52415;DHT22;38340;52.964;6.086;2023-04-03T00:11:23;1.80;99.90
52415;DHT22;38340;52.964;6.086;2023-04-03T00:13:49;1.80;99.90
52415;DHT22;38340;52.964;6.086;2023-04-03T00:16:15;1.80;99.90
52415;DHT22;38340;52.964;6.086;2023-04-03T00:18:41;1.70;99.90
52415;DHT22;38340;52.964;6.086;2023-04-03T00:21:09;1.70;99.90
52415;DHT22;38340;52.964;6.086;2023-04-03T00:23:35;1.70;99.90
52415;DHT22;38340;52.964;6.086;2023-04-03T00:26:00;1.60;99.90
52415;DHT22;38340;52.964;6.086;2023-04-03T00:28:26;1.60;99.90
52415;DHT22;38340;52.964;6.086;2023-04-03T00:30:52;1.60;99.90
52415;DHT22;38340;52.964;6.086;2023-04-03T00:33:18;1.60;99.90
52415;DHT22;38340;52.964;6.086;2023-04-03T00:35:47;1.50;99.90
52415;DHT22;38340;52.964;6.086;2023-04-03T00:38:13;1.50;99.90
52415;DHT22;38340;52.964;6.086;2023-04-03T00:40:43;1.50;99.90
52415;DHT22;38340;52.964;6.086;2023-04-03T00:43:16;1.50;99.90
52415;DHT22;38340;52.964;6.086;2023-04-03T00:45:44;1.50;99.90
52415;DHT22;38340;52.964;6.086;2023-04-03T00:48:18;1.50;99.90
52415;DHT22;38340;52.964;6.086;2023-04-03T00:50:46;1.50;99.90
52415;DHT22;38340;52.964;6.086;2023-04-03T00:53:16;1.50;99.90
52415;DHT22;38340;52.964;6.086;2023-04-03T00:55:44;1.40;99.90
52415;DHT22;38340;52.964;6.086;2023-04-03T00:58:12;1.40;99.90
52415;DHT22;38340;52.964;6.086;2023-04-03T01:00:40;1.40;99.90
52415;DHT22;38340;52.964;6.086;2023-04-03T01:03:08;1.40;99.90
52415;DHT22;38340;52.964;6.086;2023-04-03T01:05:34;1.30;99.90
52415;DHT22;38340;52.964;6.086;2023-04-03T01:08:00;1.30;99.90
52415;DHT22;38340;52.964;6.086;2023-04-03T01:10:26;1.30;99.90
52415;DHT22;38340;52.964;6.086;2023-04-03T01:12:53;1.20;99.90
52415;DHT22;38340;52.964;6.086;2023-04-03T01:15:24;1.20;99.90
52415;DHT22;38340;52.964;6.086;2023-04-03T01:17:56;1.20;99.90
52415;DHT22;38340;52.964;6.086;2023-04-03T01:20:37;1.10;99.90
52415;DHT22;38340;52.964;6.086;2023-04-03T01:25:48;1.10;99.90
52415;DHT22;38340;52.964;6.086;2023-04-03T01:28:26;1.10;99.90
52415;DHT22;38340;52.964;6.086;2023-04-03T01:33:49;1.00;99.90
52415;DHT22;38340;52.964;6.086;2023-04-03T01:36:18;1.00;99.90
52415;DHT22;38340;52.964;6.086;2023-04-03T01:38:44;0.90;99.90
52415;DHT22;38340;52.964;6.086;2023-04-03T01:41:10;0.90;99.90
52415;DHT22;38340;52.964;6.086;2023-04-03T01:43:36;0.90;99.90
52415;DHT22;38340;52.964;6.086;2023-04-03T01:46:01;0.90;99.90
52415;DHT22;38340;52.964;6.086;2023-04-03T01:48:27;0.80;99.90
52415;DHT22;38340;52.964;6.086;2023-04-03T01:50:53;0.80;99.90
52415;DHT22;38340;52.964;6.086;2023-04-03T01:53:19;0.70;99.90
52415;DHT22;38340;52.964;6.086;2023-04-03T01:55:45;0.70;99.90
52415;DHT22;38340;52.964;6.086;2023-04-03T01:58:10;0.70;99.90
52415;DHT22;38340;52.964;6.086;2023-04-03T02:00:36;0.70;99.90
52415;DHT22;38340;52.964;6.086;2023-04-03T02:03:02;0.60;99.90
52415;DHT22;38340;52.964;6.086;2023-04-03T02:05:28;0.60;99.90
52415;DHT22;38340;52.964;6.086;2023-04-03T02:07:53;0.60;99.90
52415;DHT22;38340;52.964;6.086;2023-04-03T02:10:19;0.50;99.90
52415;DHT22;38340;52.964;6.086;2023-04-03T02:12:45;0.50;99.90
52415;DHT22;38340;52.964;6.086;2023-04-03T02:15:11;0.50;99.90
52415;DHT22;38340;52.964;6.086;2023-04-03T02:17:36;0.40;99.90
52415;DHT22;38340;52.964;6.086;2023-04-03T02:20:03;0.40;99.90
52415;DHT22;38340;52.964;6.086;2023-04-03T02:22:29;0.40;99.90
52415;DHT22;38340;52.964;6.086;2023-04-03T02:24:55;0.40;99.90
52415;DHT22;38340;52.964;6.086;2023-04-03T02:27:20;0.30;99.90
52415;DHT22;38340;52.964;6.086;2023-04-03T02:29:46;0.30;1.00
52415;DHT22;38340;52.964;6.086;2023-04-03T02:32:12;0.30;1.00
52415;DHT22;38340;52.964;6.086;2023-04-03T02:34:37;0.30;1.00
52415;DHT22;38340;52.964;6.086;2023-04-03T02:37:03;0.30;1.00
52415;DHT22;38340;52.964;6.086;2023-04-03T02:39:29;0.30;1.00
52415;DHT22;38340;52.964;6.086;2023-04-03T02:41:54;0.20;1.00
52415;DHT22;38340;52.964;6.086;2023-04-03T02:44:20;0.20;1.00
52415;DHT22;38340;52.964;6.086;2023-04-03T02:46:46;0.20;1.00
52415;DHT22;38340;52.964;6.086;2023-04-03T02:49:11;0.20;1.00
52415;DHT22;38340;52.964;6.086;2023-04-03T02:51:37;0.10;1.00
52415;DHT22;38340;52.964;6.086;2023-04-03T02:54:03;0.10;1.00
52415;DHT22;38340;52.964;6.086;2023-04-03T02:56:28;0.10;1.00
52415;DHT22;38340;52.964;6.086;2023-04-03T02:58:54;0.10;1.00
52415;DHT22;38340;52.964;6.086;2023-04-03T03:01:20;0.00;1.00
52415;DHT22;38340;52.964;6.086;2023-04-03T03:03:46;0.00;25.00
52415;DHT22;38340;52.964;6.086;2023-04-03T03:06:16;0.00;71.80
52415;DHT22;38340;52.964;6.086;2023-04-03T03:08:42;-0.10;77.60
52415;DHT22;38340;52.964;6.086;2023-04-03T03:11:09;-0.10;99.30
52415;DHT22;38340;52.964;6.086;2023-04-03T03:13:35;-0.10;99.90
52415;DHT22;38340;52.964;6.086;2023-04-03T03:16:02;-0.10;99.90
52415;DHT22;38340;52.964;6.086;2023-04-03T03:18:28;-0.20;99.90
52415;DHT22;38340;52.964;6.086;2023-04-03T03:20:58;-0.20;99.90
52415;DHT22;38340;52.964;6.086;2023-04-03T03:23:25;-0.20;99.90
52415;DHT22;38340;52.964;6.086;2023-04-03T03:26:10;-0.30;99.90
52415;DHT22;38340;52.964;6.086;2023-04-03T03:28:37;-0.30;99.90
52415;DHT22;38340;52.964;6.086;2023-04-03T03:31:04;-0.30;99.90
52415;DHT22;38340;52.964;6.086;2023-04-03T03:33:30;-0.30;99.90
52415;DHT22;38340;52.964;6.086;2023-04-03T03:35:56;-0.30;99.90
52415;DHT22;38340;52.964;6.086;2023-04-03T03:38:23;-0.40;99.90
52415;DHT22;38340;52.964;6.086;2023-04-03T03:40:50;-0.40;99.90
52415;DHT22;38340;52.964;6.086;2023-04-03T03:43:17;-0.40;99.90
52415;DHT22;38340;52.964;6.086;2023-04-03T03:45:43;-0.40;99.90
52415;DHT22;38340;52.964;6.086;2023-04-03T03:48:09;-0.40;99.90
52415;DHT22;38340;52.964;6.086;2023-04-03T03:50:35;-0.40;99.90
52415;DHT22;38340;52.964;6.086;2023-04-03T03:53:00;-0.50;99.90
52415;DHT22;38340;52.964;6.086;2023-04-03T03:55:26;-0.50;99.90
52415;DHT22;38340;52.964;6.086;2023-04-03T03:57:52;-0.50;99.90
52415;DHT22;38340;52.964;6.086;2023-04-03T04:00:18;-0.50;99.90
52415;DHT22;38340;52.964;6.086;2023-04-03T04:02:44;-0.50;99.90
52415;DHT22;38340;52.964;6.086;2023-04-03T04:05:10;-0.50;1.00
52415;DHT22;38340;52.964;6.086;2023-04-03T04:07:36;-0.50;1.00
52415;DHT22;38340;52.964;6.086;2023-04-03T04:10:02;-0.50;1.00
52415;DHT22;38340;52.964;6.086;2023-04-03T04:12:27;-0.60;1.00
52415;DHT22;38340;52.964;6.086;2023-04-03T04:14:53;-0.60;1.00
52415;DHT22;38340;52.964;6.086;2023-04-03T04:17:19;-0.60;1.00
52415;DHT22;38340;52.964;6.086;2023-04-03T04:19:45;-0.60;1.00
52415;DHT22;38340;52.964;6.086;2023-04-03T04:22:10;-0.60;1.00
52415;DHT22;38340;52.964;6.086;2023-04-03T04:24:36;-0.60;1.00
52415;DHT22;38340;52.964;6.086;2023-04-03T04:27:02;-0.60;1.00
52415;DHT22;38340;52.964;6.086;2023-04-03T04:29:28;-0.60;1.00
52415;DHT22;38340;52.964;6.086;2023-04-03T04:31:54;-0.70;1.00
52415;DHT22;38340;52.964;6.086;2023-04-03T04:34:19;-0.70;1.00
52415;DHT22;38340;52.964;6.086;2023-04-03T04:36:45;-0.70;1.00
52415;DHT22;38340;52.964;6.086;2023-04-03T04:39:11;-0.80;1.00
52415;DHT22;38340;52.964;6.086;2023-04-03T04:41:36;-0.80;1.00
52415;DHT22;38340;52.964;6.086;2023-04-03T04:44:02;-0.80;1.00
52415;DHT22;38340;52.964;6.086;2023-04-03T04:46:28;-0.80;14.30
52415;DHT22;38340;52.964;6.086;2023-04-03T04:48:54;-0.80;71.00
52415;DHT22;38340;52.964;6.086;2023-04-03T04:51:19;-0.80;91.40
52415;DHT22;38340;52.964;6.086;2023-04-03T04:53:45;-0.80;99.90
52415;DHT22;38340;52.964;6.086;2023-04-03T04:56:11;-0.80;99.90
52415;DHT22;38340;52.964;6.086;2023-04-03T04:58:37;-0.80;99.90
52415;DHT22;38340;52.964;6.086;2023-04-03T05:01:08;-0.80;99.90
52415;DHT22;38340;52.964;6.086;2023-04-03T05:03:34;-0.90;99.90
52415;DHT22;38340;52.964;6.086;2023-04-03T05:06:00;-0.90;99.90
52415;DHT22;38340;52.964;6.086;2023-04-03T05:08:26;-0.90;99.90
52415;DHT22;38340;52.964;6.086;2023-04-03T05:10:52;-0.90;99.90
52415;DHT22;38340;52.964;6.086;2023-04-03T05:13:19;-0.90;99.90
52415;DHT22;38340;52.964;6.086;2023-04-03T05:15:45;-0.90;99.90
52415;DHT22;38340;52.964;6.086;2023-04-03T05:18:11;-0.80;99.90
52415;DHT22;38340;52.964;6.086;2023-04-03T05:20:37;-0.80;99.90
52415;DHT22;38340;52.964;6.086;2023-04-03T05:23:03;-0.80;99.90
52415;DHT22;38340;52.964;6.086;2023-04-03T05:25:29;-0.90;99.90
52415;DHT22;38340;52.964;6.086;2023-04-03T05:27:55;-0.90;99.90
52415;DHT22;38340;52.964;6.086;2023-04-03T05:30:20;-0.80;99.90
52415;DHT22;38340;52.964;6.086;2023-04-03T05:32:46;-0.80;99.90
52415;DHT22;38340;52.964;6.086;2023-04-03T05:35:12;-0.80;99.90
52415;DHT22;38340;52.964;6.086;2023-04-03T05:37:37;-0.80;99.90
52415;DHT22;38340;52.964;6.086;2023-04-03T05:40:04;-0.80;99.90
52415;DHT22;38340;52.964;6.086;2023-04-03T05:42:30;-0.80;99.90
52415;DHT22;38340;52.964;6.086;2023-04-03T05:44:56;-0.70;99.90
52415;DHT22;38340;52.964;6.086;2023-04-03T05:47:21;-0.70;99.90
52415;DHT22;38340;52.964;6.086;2023-04-03T05:49:47;-0.60;99.90
52415;DHT22;38340;52.964;6.086;2023-04-03T05:52:37;-0.60;99.90
52415;DHT22;38340;52.964;6.086;2023-04-03T05:55:03;-0.50;99.90
52415;DHT22;38340;52.964;6.086;2023-04-03T05:57:29;-0.50;99.90
52415;DHT22;38340;52.964;6.086;2023-04-03T05:59:55;-0.50;99.90
52415;DHT22;38340;52.964;6.086;2023-04-03T06:02:23;-0.40;99.90
52415;DHT22;38340;52.964;6.086;2023-04-03T06:04:49;-0.30;99.90
52415;DHT22;38340;52.964;6.086;2023-04-03T06:07:17;-0.30;99.90
52415;DHT22;38340;52.964;6.086;2023-04-03T06:09:43;-0.20;99.90
52415;DHT22;38340;52.964;6.086;2023-04-03T06:12:09;-0.20;99.90
52415;DHT22;38340;52.964;6.086;2023-04-03T06:14:35;-0.20;99.90
52415;DHT22;38340;52.964;6.086;2023-04-03T06:17:02;-0.10;99.90
52415;DHT22;38340;52.964;6.086;2023-04-03T06:19:28;0.00;99.90
52415;DHT22;38340;52.964;6.086;2023-04-03T06:21:53;0.00;99.90
52415;DHT22;38340;52.964;6.086;2023-04-03T06:24:20;0.10;99.90
52415;DHT22;38340;52.964;6.086;2023-04-03T06:26:47;0.20;99.90
52415;DHT22;38340;52.964;6.086;2023-04-03T06:29:13;0.30;99.90
52415;DHT22;38340;52.964;6.086;2023-04-03T06:31:38;0.30;99.90
52415;DHT22;38340;52.964;6.086;2023-04-03T06:34:05;0.40;99.90
52415;DHT22;38340;52.964;6.086;2023-04-03T06:36:32;0.50;99.90
52415;DHT22;38340;52.964;6.086;2023-04-03T06:38:57;0.60;99.90
52415;DHT22;38340;52.964;6.086;2023-04-03T06:41:23;0.70;99.90
52415;DHT22;38340;52.964;6.086;2023-04-03T06:43:49;0.80;99.90
52415;DHT22;38340;52.964;6.086;2023-04-03T06:46:20;0.90;99.90
52415;DHT22;38340;52.964;6.086;2023-04-03T06:48:47;1.00;99.90
52415;DHT22;38340;52.964;6.086;2023-04-03T06:51:23;1.20;99.90
52415;DHT22;38340;52.964;6.086;2023-04-03T06:53:50;1.30;99.90
52415;DHT22;38340;52.964;6.086;2023-04-03T06:56:17;1.40;99.90
52415;DHT22;38340;52.964;6.086;2023-04-03T06:58:43;1.50;99.90
52415;DHT22;38340;52.964;6.086;2023-04-03T07:01:11;1.60;99.90
52415;DHT22;38340;52.964;6.086;2023-04-03T07:03:37;1.70;99.90
52415;DHT22;38340;52.964;6.086;2023-04-03T07:06:04;1.80;99.90
52415;DHT22;38340;52.964;6.086;2023-04-03T07:08:31;1.90;99.90
52415;DHT22;38340;52.964;6.086;2023-04-03T07:10:57;2.10;99.90
52415;DHT22;38340;52.964;6.086;2023-04-03T07:13:23;2.20;99.90
52415;DHT22;38340;52.964;6.086;2023-04-03T07:15:48;2.30;99.90
52415;DHT22;38340;52.964;6.086;2023-04-03T07:18:14;2.40;99.90
52415;DHT22;38340;52.964;6.086;2023-04-03T07:20:40;2.60;97.50
52415;DHT22;38340;52.964;6.086;2023-04-03T07:23:06;2.70;1.00
52415;DHT22;38340;52.964;6.086;2023-04-03T07:25:31;2.80;1.00
52415;DHT22;38340;52.964;6.086;2023-04-03T07:27:57;2.90;1.00
52415;DHT22;38340;52.964;6.086;2023-04-03T07:30:23;3.00;99.90
52415;DHT22;38340;52.964;6.086;2023-04-03T07:32:49;3.10;99.90
52415;DHT22;38340;52.964;6.086;2023-04-03T07:35:15;3.30;99.90
52415;DHT22;38340;52.964;6.086;2023-04-03T07:37:42;3.30;99.90
52415;DHT22;38340;52.964;6.086;2023-04-03T07:40:07;3.50;49.60
52415;DHT22;38340;52.964;6.086;2023-04-03T07:42:34;3.50;1.00
52415;DHT22;38340;52.964;6.086;2023-04-03T07:45:01;3.70;1.00
52415;DHT22;38340;52.964;6.086;2023-04-03T07:47:27;3.80;1.00
52415;DHT22;38340;52.964;6.086;2023-04-03T07:49:53;3.90;1.00
52415;DHT22;38340;52.964;6.086;2023-04-03T07:52:18;4.00;99.90
52415;DHT22;38340;52.964;6.086;2023-04-03T07:54:44;4.20;99.90
52415;DHT22;38340;52.964;6.086;2023-04-03T07:57:10;4.30;99.90
52415;DHT22;38340;52.964;6.086;2023-04-03T07:59:36;4.40;99.90
52415;DHT22;38340;52.964;6.086;2023-04-03T08:02:01;4.40;52.80
52415;DHT22;38340;52.964;6.086;2023-04-03T08:04:30;4.50;9.50
52415;DHT22;38340;52.964;6.086;2023-04-03T08:06:55;4.60;1.00
52415;DHT22;38340;52.964;6.086;2023-04-03T08:09:21;4.70;99.90
52415;DHT22;38340;52.964;6.086;2023-04-03T08:11:47;4.80;99.90
52415;DHT22;38340;52.964;6.086;2023-04-03T08:14:13;4.80;99.90
52415;DHT22;38340;52.964;6.086;2023-04-03T08:16:43;4.90;99.90
52415;DHT22;38340;52.964;6.086;2023-04-03T08:19:09;5.10;99.90
52415;DHT22;38340;52.964;6.086;2023-04-03T08:21:36;5.20;96.10
52415;DHT22;38340;52.964;6.086;2023-04-03T08:24:02;5.30;57.00
52415;DHT22;38340;52.964;6.086;2023-04-03T08:26:28;5.40;3.30
52415;DHT22;38340;52.964;6.086;2023-04-03T08:28:54;5.40;1.00
52415;DHT22;38340;52.964;6.086;2023-04-03T08:31:20;5.50;1.00
52415;DHT22;38340;52.964;6.086;2023-04-03T08:33:46;5.60;99.90
52415;DHT22;38340;52.964;6.086;2023-04-03T08:36:24;5.70;99.90
52415;DHT22;38340;52.964;6.086;2023-04-03T08:38:51;5.70;99.90
52415;DHT22;38340;52.964;6.086;2023-04-03T08:41:40;5.80;99.90
52415;DHT22;38340;52.964;6.086;2023-04-03T08:50:07;6.10;99.90
52415;DHT22;38340;52.964;6.086;2023-04-03T08:52:45;6.20;99.90
52415;DHT22;38340;52.964;6.086;2023-04-03T08:55:20;6.20;80.30
52415;DHT22;38340;52.964;6.086;2023-04-03T08:57:48;6.30;87.90
52415;DHT22;38340;52.964;6.086;2023-04-03T09:00:21;6.40;23.50
52415;DHT22;38340;52.964;6.086;2023-04-03T09:02:50;6.40;1.00
52415;DHT22;38340;52.964;6.086;2023-04-03T09:08:33;6.60;61.30
52415;DHT22;38340;52.964;6.086;2023-04-03T09:21:47;6.80;1.00
52415;DHT22;38340;52.964;6.086;2023-04-03T09:24:15;6.80;1.00
52415;DHT22;38340;52.964;6.086;2023-04-03T09:27:04;6.90;1.00
52415;DHT22;38340;52.964;6.086;2023-04-03T09:29:31;7.00;1.00
52415;DHT22;38340;52.964;6.086;2023-04-03T09:32:01;7.00;1.00
52415;DHT22;38340;52.964;6.086;2023-04-03T09:34:31;7.10;1.00
52415;DHT22;38340;52.964;6.086;2023-04-03T09:37:00;7.30;1.00
52415;DHT22;38340;52.964;6.086;2023-04-03T09:39:32;7.40;1.00
52415;DHT22;38340;52.964;6.086;2023-04-03T09:42:05;7.40;1.00
52415;DHT22;38340;52.964;6.086;2023-04-03T09:44:35;7.50;1.00
52415;DHT22;38340;52.964;6.086;2023-04-03T09:47:28;7.50;1.00
52415;DHT22;38340;52.964;6.086;2023-04-03T09:52:40;7.60;1.00
52415;DHT22;38340;52.964;6.086;2023-04-03T09:55:17;7.80;1.00
52415;DHT22;38340;52.964;6.086;2023-04-03T09:57:46;7.80;1.00
52415;DHT22;38340;52.964;6.086;2023-04-03T10:00:30;7.70;1.00
52415;DHT22;38340;52.964;6.086;2023-04-03T10:02:57;7.70;1.00
52415;DHT22;38340;52.964;6.086;2023-04-03T10:08:20;7.90;1.00
52415;DHT22;38340;52.964;6.086;2023-04-03T10:10:48;7.90;1.00
52415;DHT22;38340;52.964;6.086;2023-04-03T10:13:19;8.00;1.00
52415;DHT22;38340;52.964;6.086;2023-04-03T10:16:07;8.00;1.00
52415;DHT22;38340;52.964;6.086;2023-04-03T10:18:53;7.90;1.00
52415;DHT22;38340;52.964;6.086;2023-04-03T10:29:41;8.00;1.00
52415;DHT22;38340;52.964;6.086;2023-04-03T10:38:00;8.10;1.00
52415;DHT22;38340;52.964;6.086;2023-04-03T10:41:17;8.20;1.00
52415;DHT22;38340;52.964;6.086;2023-04-03T10:43:53;8.20;1.00
52415;DHT22;38340;52.964;6.086;2023-04-03T10:46:36;8.30;1.00
52415;DHT22;38340;52.964;6.086;2023-04-03T10:52:10;8.30;1.00
52415;DHT22;38340;52.964;6.086;2023-04-03T10:54:43;8.20;1.00
52415;DHT22;38340;52.964;6.086;2023-04-03T10:57:12;8.20;1.00
52415;DHT22;38340;52.964;6.086;2023-04-03T11:02:30;8.20;1.00
52415;DHT22;38340;52.964;6.086;2023-04-03T11:05:07;8.20;1.00
52415;DHT22;38340;52.964;6.086;2023-04-03T11:07:43;8.20;1.00
52415;DHT22;38340;52.964;6.086;2023-04-03T11:13:11;8.30;1.00
52415;DHT22;38340;52.964;6.086;2023-04-03T11:15:38;8.30;1.00
52415;DHT22;38340;52.964;6.086;2023-04-03T11:18:10;8.20;1.00
52415;DHT22;38340;52.964;6.086;2023-04-03T11:20:38;8.20;1.00
52415;DHT22;38340;52.964;6.086;2023-04-03T11:23:24;8.20;1.00
52415;DHT22;38340;52.964;6.086;2023-04-03T11:25:54;8.20;1.00
52415;DHT22;38340;52.964;6.086;2023-04-03T11:28:21;8.20;1.00
52415;DHT22;38340;52.964;6.086;2023-04-03T11:30:51;8.20;1.00
52415;DHT22;38340;52.964;6.086;2023-04-03T11:38:41;8.30;1.00
52415;DHT22;38340;52.964;6.086;2023-04-03T11:41:09;8.20;1.00
52415;DHT22;38340;52.964;6.086;2023-04-03T11:43:41;8.20;1.00
52415;DHT22;38340;52.964;6.086;2023-04-03T11:46:08;8.20;1.00
52415;DHT22;38340;52.964;6.086;2023-04-03T11:53:43;8.30;1.00
52415;DHT22;38340;52.964;6.086;2023-04-03T12:04:25;8.50;1.00
52415;DHT22;38340;52.964;6.086;2023-04-03T12:07:33;8.50;1.00
52415;DHT22;38340;52.964;6.086;2023-04-03T12:12:27;8.60;1.00
52415;DHT22;38340;52.964;6.086;2023-04-03T12:14:53;8.50;1.00
52415;DHT22;38340;52.964;6.086;2023-04-03T12:17:27;8.50;1.00
52415;DHT22;38340;52.964;6.086;2023-04-03T12:19:55;8.50;1.00
52415;DHT22;38340;52.964;6.086;2023-04-03T12:22:22;8.50;1.00
52415;DHT22;38340;52.964;6.086;2023-04-03T12:24:50;8.50;1.00
52415;DHT22;38340;52.964;6.086;2023-04-03T12:27:43;8.50;1.00
52415;DHT22;38340;52.964;6.086;2023-04-03T12:30:21;8.50;1.00
52415;DHT22;38340;52.964;6.086;2023-04-03T12:35:38;8.70;1.00
52415;DHT22;38340;52.964;6.086;2023-04-03T12:44:00;8.60;1.00
52415;DHT22;38340;52.964;6.086;2023-04-03T12:46:38;8.60;1.00
52415;DHT22;38340;52.964;6.086;2023-04-03T12:49:20;8.60;1.00
52415;DHT22;38340;52.964;6.086;2023-04-03T12:51:48;8.50;1.00
52415;DHT22;38340;52.964;6.086;2023-04-03T12:54:22;8.50;1.00
52415;DHT22;38340;52.964;6.086;2023-04-03T12:56:48;8.60;1.00
52415;DHT22;38340;52.964;6.086;2023-04-03T13:01:55;8.60;1.00
52415;DHT22;38340;52.964;6.086;2023-04-03T13:04:22;8.70;1.00
52415;DHT22;38340;52.964;6.086;2023-04-03T13:06:48;8.70;1.00
52415;DHT22;38340;52.964;6.086;2023-04-03T13:14:34;8.90;1.00
52415;DHT22;38340;52.964;6.086;2023-04-03T13:17:10;8.90;1.00
52415;DHT22;38340;52.964;6.086;2023-04-03T13:19:37;8.90;1.00
52415;DHT22;38340;52.964;6.086;2023-04-03T13:22:06;8.90;1.00
52415;DHT22;38340;52.964;6.086;2023-04-03T13:24:35;8.90;1.00
52415;DHT22;38340;52.964;6.086;2023-04-03T13:27:02;8.90;1.00
52415;DHT22;38340;52.964;6.086;2023-04-03T13:29:35;8.80;1.00
52415;DHT22;38340;52.964;6.086;2023-04-03T13:32:02;8.80;1.00
52415;DHT22;38340;52.964;6.086;2023-04-03T13:34:37;8.80;1.00
52415;DHT22;38340;52.964;6.086;2023-04-03T13:37:03;8.80;1.00
52415;DHT22;38340;52.964;6.086;2023-04-03T13:39:35;8.90;1.00
52415;DHT22;38340;52.964;6.086;2023-04-03T13:42:20;8.90;1.00
52415;DHT22;38340;52.964;6.086;2023-04-03T13:44:47;8.90;1.00
52415;DHT22;38340;52.964;6.086;2023-04-03T13:47:23;8.80;1.00
52415;DHT22;38340;52.964;6.086;2023-04-03T13:55:28;8.90;1.00
52415;DHT22;38340;52.964;6.086;2023-04-03T13:58:00;8.80;1.00
52415;DHT22;38340;52.964;6.086;2023-04-03T14:03:24;8.80;1.00
52415;DHT22;38340;52.964;6.086;2023-04-03T14:05:50;8.80;1.00
52415;DHT22;38340;52.964;6.086;2023-04-03T14:08:17;8.80;1.00
52415;DHT22;38340;52.964;6.086;2023-04-03T14:10:43;8.80;1.00
52415;DHT22;38340;52.964;6.086;2023-04-03T14:13:15;8.80;1.00
52415;DHT22;38340;52.964;6.086;2023-04-03T14:15:43;8.80;1.00
52415;DHT22;38340;52.964;6.086;2023-04-03T14:18:13;8.80;1.00
52415;DHT22;38340;52.964;6.086;2023-04-03T14:20:39;8.80;1.00
52415;DHT22;38340;52.964;6.086;2023-04-03T14:23:05;8.80;1.00
52415;DHT22;38340;52.964;6.086;2023-04-03T14:25:32;8.80;1.00
52415;DHT22;38340;52.964;6.086;2023-04-03T14:27:58;8.80;1.00
52415;DHT22;38340;52.964;6.086;2023-04-03T14:30:31;8.80;1.00
52415;DHT22;38340;52.964;6.086;2023-04-03T14:32:58;8.80;1.00
52415;DHT22;38340;52.964;6.086;2023-04-03T14:35:24;8.80;1.00
52415;DHT22;38340;52.964;6.086;2023-04-03T14:37:51;8.80;1.00
52415;DHT22;38340;52.964;6.086;2023-04-03T14:40:22;8.80;1.00
52415;DHT22;38340;52.964;6.086;2023-04-03T14:42:48;8.80;1.00
52415;DHT22;38340;52.964;6.086;2023-04-03T14:45:14;8.80;1.00
52415;DHT22;38340;52.964;6.086;2023-04-03T14:47:51;8.70;1.00
52415;DHT22;38340;52.964;6.086;2023-04-03T14:50:20;8.70;1.00
52415;DHT22;38340;52.964;6.086;2023-04-03T14:52:47;8.70;1.00
52415;DHT22;38340;52.964;6.086;2023-04-03T14:55:16;8.80;1.00
52415;DHT22;38340;52.964;6.086;2023-04-03T14:57:43;8.80;1.00
52415;DHT22;38340;52.964;6.086;2023-04-03T15:00:14;8.80;1.00
52415;DHT22;38340;52.964;6.086;2023-04-03T15:02:40;8.80;1.00
52415;DHT22;38340;52.964;6.086;2023-04-03T15:05:09;8.90;1.00
52415;DHT22;38340;52.964;6.086;2023-04-03T15:07:38;8.80;1.00
52415;DHT22;38340;52.964;6.086;2023-04-03T15:10:16;8.80;1.00
52415;DHT22;38340;52.964;6.086;2023-04-03T15:12:43;8.80;1.00
52415;DHT22;38340;52.964;6.086;2023-04-03T15:15:09;8.80;1.00
52415;DHT22;38340;52.964;6.086;2023-04-03T15:17:36;8.70;1.00
52415;DHT22;38340;52.964;6.086;2023-04-03T15:20:03;8.70;1.00
52415;DHT22;38340;52.964;6.086;2023-04-03T15:22:28;8.70;1.00
52415;DHT22;38340;52.964;6.086;2023-04-03T15:24:54;8.70;1.00
52415;DHT22;38340;52.964;6.086;2023-04-03T15:27:20;8.60;1.00
52415;DHT22;38340;52.964;6.086;2023-04-03T15:29:46;8.60;1.00
52415;DHT22;38340;52.964;6.086;2023-04-03T15:32:12;8.60;1.00
52415;DHT22;38340;52.964;6.086;2023-04-03T15:34:39;8.60;1.00
52415;DHT22;38340;52.964;6.086;2023-04-03T15:37:04;8.60;1.00
52415;DHT22;38340;52.964;6.086;2023-04-03T15:39:31;8.60;1.00
52415;DHT22;38340;52.964;6.086;2023-04-03T15:41:57;8.70;1.00
52415;DHT22;38340;52.964;6.086;2023-04-03T15:44:32;8.60;1.00
52415;DHT22;38340;52.964;6.086;2023-04-03T15:46:58;8.50;1.00
52415;DHT22;38340;52.964;6.086;2023-04-03T15:49:25;8.50;1.00
52415;DHT22;38340;52.964;6.086;2023-04-03T15:51:51;8.60;1.00
52415;DHT22;38340;52.964;6.086;2023-04-03T15:54:17;8.50;1.00
52415;DHT22;38340;52.964;6.086;2023-04-03T15:56:43;8.60;1.00
52415;DHT22;38340;52.964;6.086;2023-04-03T15:59:09;8.60;1.00
52415;DHT22;38340;52.964;6.086;2023-04-03T16:01:36;8.60;1.00
52415;DHT22;38340;52.964;6.086;2023-04-03T16:04:03;8.50;1.00
52415;DHT22;38340;52.964;6.086;2023-04-03T16:06:28;8.50;1.00
52415;DHT22;38340;52.964;6.086;2023-04-03T16:08:58;8.50;1.00
52415;DHT22;38340;52.964;6.086;2023-04-03T16:11:26;8.40;1.00
52415;DHT22;38340;52.964;6.086;2023-04-03T16:13:53;8.50;1.00
52415;DHT22;38340;52.964;6.086;2023-04-03T16:16:19;8.50;1.00
52415;DHT22;38340;52.964;6.086;2023-04-03T16:18:45;8.40;1.00
52415;DHT22;38340;52.964;6.086;2023-04-03T16:21:13;8.30;1.00
52415;DHT22;38340;52.964;6.086;2023-04-03T16:23:40;8.30;1.00
52415;DHT22;38340;52.964;6.086;2023-04-03T16:26:07;8.20;1.00
52415;DHT22;38340;52.964;6.086;2023-04-03T16:28:32;8.10;1.00
52415;DHT22;38340;52.964;6.086;2023-04-03T16:30:59;8.00;1.00
52415;DHT22;38340;52.964;6.086;2023-04-03T16:33:26;8.00;1.00
52415;DHT22;38340;52.964;6.086;2023-04-03T16:35:51;8.00;1.00
52415;DHT22;38340;52.964;6.086;2023-04-03T16:38:18;7.90;1.00
52415;DHT22;38340;52.964;6.086;2023-04-03T16:40:47;7.90;1.00
52415;DHT22;38340;52.964;6.086;2023-04-03T16:43:14;7.90;1.00
52415;DHT22;38340;52.964;6.086;2023-04-03T16:45:41;7.80;1.00
52415;DHT22;38340;52.964;6.086;2023-04-03T16:48:06;7.80;1.00
52415;DHT22;38340;52.964;6.086;2023-04-03T16:50:32;7.80;1.00
52415;DHT22;38340;52.964;6.086;2023-04-03T16:52:58;7.70;1.00
52415;DHT22;38340;52.964;6.086;2023-04-03T16:55:24;7.70;1.00
52415;DHT22;38340;52.964;6.086;2023-04-03T16:57:50;7.70;1.00
52415;DHT22;38340;52.964;6.086;2023-04-03T17:00:16;7.70;1.00
52415;DHT22;38340;52.964;6.086;2023-04-03T17:02:42;7.60;1.00
52415;DHT22;38340;52.964;6.086;2023-04-03T17:05:07;7.60;1.00
52415;DHT22;38340;52.964;6.086;2023-04-03T17:07:33;7.50;1.00
52415;DHT22;38340;52.964;6.086;2023-04-03T17:09:59;7.50;1.00
52415;DHT22;38340;52.964;6.086;2023-04-03T17:12:25;7.50;1.00
52415;DHT22;38340;52.964;6.086;2023-04-03T17:14:51;7.50;1.00
52415;DHT22;38340;52.964;6.086;2023-04-03T17:17:21;7.50;1.00
52415;DHT22;38340;52.964;6.086;2023-04-03T17:19:47;7.40;1.00
52415;DHT22;38340;52.964;6.086;2023-04-03T17:22:13;7.40;1.00
52415;DHT22;38340;52.964;6.086;2023-04-03T17:24:38;7.40;1.00
52415;DHT22;38340;52.964;6.086;2023-04-03T17:27:04;7.30;1.00
52415;DHT22;38340;52.964;6.086;2023-04-03T17:29:30;7.30;1.00
52415;DHT22;38340;52.964;6.086;2023-04-03T17:31:55;7.30;1.00
52415;DHT22;38340;52.964;6.086;2023-04-03T17:34:21;7.30;1.00
52415;DHT22;38340;52.964;6.086;2023-04-03T17:36:47;7.30;1.00
52415;DHT22;38340;52.964;6.086;2023-04-03T17:39:13;7.20;1.00